Molt, Montana
Current Conditions -  °F | °C
As of 8:53 PM on Saturday 25 Oct 2014 (Local Time) from KBIL Reporting Station
Broken Clouds Broken Clouds  
Wind Chill: 53°   Ceiling: 25000
Heat Index: 53°   Visibility: 10mi
Dew Point: 34°   Wind: 6mph
Humidity: 48%   Direction: 310°NW
Pressure: 29.7"   Gusts: NA
Location:  45.86°N, 108.93°W
Report Text: KBIL 260253Z 31005KT 10SM BKN250 12/01 A2970 RMK AO2 SLP060 T01170011 56018
Loading
Personal Weather Stations






























Interactive Weather Map
Tropical Storm Tracking
New forecast layout! Learn more

10-Day Weather Forecast

Advertisements
Track Severe Weather on mobile